Time;durP1;ratioP1;P1;durP2;ratioP2;P2;SDS_P1;SDS_P2;PMS_P1;PMS_P2;Temp;Humidity;BMP_temperature;BMP_pressure;BME280_temperature;BME280_humidity;BME280_pressure;Samples;Min_cycle;Max_cycle;Signal;HPM_P1;HPM_P2
2024/03/31 00:00:04;;;;;;;18.75;9.55;;;;;;;11.37;81.06;100171.97;1733872;83;21017;-80
2024/03/31 00:02:36;;;;;;;19.25;9.33;;;;;;;11.34;81.12;100169.64;1733305;82;21495;-79
2024/03/31 00:05:04;;;;;;;18.00;8.53;;;;;;;11.32;81.21;100170.38;1733959;81;21127;-78
2024/03/31 00:07:33;;;;;;;15.98;8.08;;;;;;;11.30;81.46;100158.77;1741185;81;21453;-82
2024/03/31 00:10:02;;;;;;;15.40;5.33;;;;;;;11.31;81.58;100169.53;1722926;82;21046;-80
2024/03/31 00:12:30;;;;;;;14.80;5.95;;;;;;;11.31;81.79;100164.58;1722966;83;21062;-81
2024/03/31 00:14:59;;;;;;;15.40;7.08;;;;;;;11.35;82.20;100169.96;1722847;83;21048;-80
2024/03/31 00:17:27;;;;;;;20.43;9.28;;;;;;;11.37;82.39;100165.95;1722882;83;21073;-81
2024/03/31 00:19:56;;;;;;;18.85;8.65;;;;;;;11.37;82.31;100170.07;1723025;83;21042;-80
2024/03/31 00:22:24;;;;;;;16.50;7.58;;;;;;;11.35;82.25;100169.96;1722861;83;21058;-80
2024/03/31 00:24:52;;;;;;;15.00;6.85;;;;;;;11.34;82.28;100166.90;1722916;83;21047;-79
2024/03/31 00:27:21;;;;;;;16.42;7.78;;;;;;;11.32;82.32;100168.48;1722965;82;21087;-78
2024/03/31 00:29:49;;;;;;;16.75;8.60;;;;;;;11.32;82.44;100168.48;1722809;83;21442;-81
2024/03/31 00:32:18;;;;;;;18.70;8.80;;;;;;;11.30;82.49;100180.71;1722912;82;21039;-81
2024/03/31 00:34:46;;;;;;;18.12;8.78;;;;;;;11.27;82.39;100177.02;1723237;83;21086;-80
2024/03/31 00:37:15;;;;;;;16.77;8.80;;;;;;;11.19;82.42;100178.58;1723054;83;21512;-80
2024/03/31 00:39:43;;;;;;;17.40;9.75;;;;;;;11.14;82.66;100175.09;1722809;83;21074;-80
2024/03/31 00:42:12;;;;;;;17.75;9.90;;;;;;;11.11;82.68;100180.45;1723058;82;21488;-80
2024/03/31 00:44:40;;;;;;;17.30;8.55;;;;;;;11.01;82.75;100174.49;1723003;83;21102;-79
2024/03/31 00:47:08;;;;;;;16.45;8.90;;;;;;;10.94;83.09;100169.52;1722812;82;21066;-80
2024/03/31 00:49:37;;;;;;;19.52;9.20;;;;;;;10.93;83.40;100173.30;1723018;83;21007;-80
2024/03/31 00:52:06;;;;;;;17.62;8.95;;;;;;;10.94;83.60;100170.03;1723233;83;21039;-80
2024/03/31 00:54:39;;;;;;;15.20;8.08;;;;;;;10.94;83.75;100169.52;1722896;83;21046;-80
2024/03/31 00:57:08;;;;;;;18.17;9.10;;;;;;;10.92;83.91;100166.13;1723187;83;21078;-80
2024/03/31 00:59:36;;;;;;;18.00;8.93;;;;;;;10.91;84.05;100167.18;1723705;83;21065;-80
2024/03/31 01:02:06;;;;;;;14.47;8.00;;;;;;;10.89;84.19;100162.44;1723559;83;21031;-81
2024/03/31 01:04:35;;;;;;;16.87;8.40;;;;;;;10.86;84.32;100164.22;1722145;83;21057;-81
2024/03/31 01:07:03;;;;;;;17.65;8.23;;;;;;;10.84;84.42;100162.73;1716496;83;21978;-79
2024/03/31 01:09:32;;;;;;;17.20;7.35;;;;;;;10.79;84.65;100168.30;1716411;83;21013;-78
2024/03/31 01:12:00;;;;;;;12.65;7.17;;;;;;;10.77;84.91;100166.29;1726673;82;21025;-80
2024/03/31 01:14:29;;;;;;;16.40;7.80;;;;;;;10.77;85.05;100169.03;1733972;82;21450;-79
2024/03/31 01:16:59;;;;;;;13.00;6.67;;;;;;;10.76;85.20;100173.34;1733815;83;21054;-79
2024/03/31 01:19:28;;;;;;;14.90;6.22;;;;;;;10.73;85.58;100171.02;1726880;82;21065;-81
2024/03/31 01:21:56;;;;;;;16.97;6.60;;;;;;;10.73;85.79;100169.13;1734017;83;20994;-80
2024/03/31 01:24:24;;;;;;;12.50;6.33;;;;;;;10.74;85.90;100169.97;1726672;82;21068;-81
2024/03/31 01:26:52;;;;;;;7.78;4.33;;;;;;;10.71;86.03;100167.11;1733794;83;21080;-79
2024/03/31 01:29:21;;;;;;;12.00;5.97;;;;;;;10.68;86.22;100168.89;1728821;83;21056;-80
2024/03/31 01:31:49;;;;;;;14.13;7.15;;;;;;;10.70;86.71;100172.80;1735842;83;21069;-81
2024/03/31 01:34:18;;;;;;;12.73;5.83;;;;;;;10.70;86.73;100185.13;1715290;83;21097;-80
2024/03/31 01:36:46;;;;;;;15.63;7.10;;;;;;;10.70;86.97;100176.91;1726749;82;21049;-81
2024/03/31 01:39:17;;;;;;;15.30;6.78;;;;;;;10.72;86.93;100170.69;1733892;83;21060;-80
2024/03/31 01:41:47;;;;;;;17.02;6.67;;;;;;;10.69;86.96;100173.84;1726525;83;21056;-81
2024/03/31 01:44:16;;;;;;;11.30;6.20;;;;;;;10.70;87.28;100176.91;1733784;83;21485;-80
2024/03/31 01:46:44;;;;;;;18.10;6.50;;;;;;;10.68;87.29;100179.84;1726659;82;21088;-78
2024/03/31 01:49:13;;;;;;;13.28;5.75;;;;;;;10.67;87.41;100175.42;1733798;83;21014;-81
2024/03/31 01:51:41;;;;;;;14.60;6.55;;;;;;;10.66;87.55;100181.95;1726612;82;21089;-80
2024/03/31 01:54:10;;;;;;;15.93;6.30;;;;;;;10.66;87.64;100180.58;1733836;83;20997;-82
2024/03/31 01:56:39;;;;;;;13.53;5.78;;;;;;;10.65;87.64;100172.56;1733888;83;21080;-80
2024/03/31 01:59:07;;;;;;;13.25;6.03;;;;;;;10.65;87.81;100176.67;1726447;82;21165;-81
2024/03/31 02:01:35;;;;;;;15.32;5.87;;;;;;;10.64;88.01;100181.83;1734040;83;21053;-80
2024/03/31 02:04:04;;;;;;;14.23;6.10;;;;;;;10.64;88.08;100184.57;1726664;83;21041;-80
2024/03/31 02:06:33;;;;;;;10.93;6.08;;;;;;;10.62;88.14;100186.66;1744193;82;21082;-81
2024/03/31 02:09:01;;;;;;;16.37;6.60;;;;;;;10.58;88.19;100189.49;1757409;81;21095;-81
2024/03/31 02:11:30;;;;;;;12.60;5.70;;;;;;;10.58;88.30;100198.55;1757369;80;21056;-80
2024/03/31 02:13:58;;;;;;;11.20;5.83;;;;;;;10.58;88.32;100194.97;1753898;82;20975;-79
2024/03/31 02:16:27;;;;;;;13.83;5.72;;;;;;;10.56;88.40;100194.33;1757270;80;21060;-80
2024/03/31 02:18:55;;;;;;;13.15;6.47;;;;;;;10.55;88.47;100196.22;1757280;82;21032;-80
2024/03/31 02:21:24;;;;;;;12.85;6.08;;;;;;;10.56;88.57;100201.17;1753853;82;21512;-81
2024/03/31 02:23:53;;;;;;;14.93;6.12;;;;;;;10.55;88.59;100198.11;1757324;80;21495;-80
2024/03/31 02:26:21;;;;;;;10.85;6.30;;;;;;;10.53;88.66;100197.47;1757416;80;21052;-82
2024/03/31 02:28:49;;;;;;;15.00;6.45;;;;;;;10.52;88.77;100190.30;1753764;82;21022;-81
2024/03/31 02:31:18;;;;;;;15.40;6.22;;;;;;;10.49;88.84;100194.30;1757358;80;20992;-82
2024/03/31 02:33:46;;;;;;;14.38;6.20;;;;;;;10.44;88.92;100193.53;1757363;82;21063;-81
2024/03/31 02:36:15;;;;;;;12.18;5.85;;;;;;;10.42;88.96;100184.67;1754279;82;21467;-82
2024/03/31 02:38:44;;;;;;;13.80;6.28;;;;;;;10.39;89.06;100190.52;1758381;82;21087;-80
2024/03/31 02:41:12;;;;;;;13.20;5.42;;;;;;;10.36;89.13;100190.08;1727751;82;21060;-80
2024/03/31 02:43:42;;;;;;;14.70;5.83;;;;;;;10.34;89.24;100192.17;1753752;82;21106;-79
2024/03/31 02:46:10;;;;;;;12.43;5.53;;;;;;;10.28;89.36;100193.82;1757351;80;21036;-80
2024/03/31 02:48:40;;;;;;;15.85;5.75;;;;;;;10.23;89.66;100196.31;1757468;82;21021;-80
2024/03/31 02:51:11;;;;;;;15.08;5.47;;;;;;;10.20;89.86;100193.10;1753814;82;21165;-80
2024/03/31 02:53:39;;;;;;;12.28;5.20;;;;;;;10.18;89.88;100189.19;1757275;80;21420;-80
2024/03/31 02:56:07;;;;;;;10.90;5.55;;;;;;;10.13;90.00;100186.21;1757323;80;21048;-80
2024/03/31 02:58:36;;;;;;;10.85;5.28;;;;;;;10.10;90.19;100189.35;1753815;82;21494;-81
2024/03/31 03:01:06;;;;;;;12.05;5.25;;;;;;;10.08;90.32;100194.17;1757340;82;21055;-81
2024/03/31 03:03:34;;;;;;;10.05;5.00;;;;;;;10.04;90.45;100192.89;1758370;80;21064;-81
2024/03/31 03:06:03;;;;;;;13.05;5.83;;;;;;;10.01;90.62;100190.02;1747528;82;21476;-81
2024/03/31 03:08:32;;;;;;;14.98;5.60;;;;;;;10.01;90.74;100192.77;1726737;83;21061;-80
2024/03/31 03:11:00;;;;;;;12.68;5.62;;;;;;;10.00;90.88;100196.55;1726661;82;21033;-81
2024/03/31 03:13:29;;;;;;;16.52;6.03;;;;;;;9.99;90.94;100194.01;1733811;83;21033;-79
2024/03/31 03:15:59;;;;;;;13.50;6.17;;;;;;;9.95;90.97;100195.45;1726491;82;21058;-81
2024/03/31 03:18:27;;;;;;;14.33;7.28;;;;;;;9.91;91.11;100203.21;1733760;83;21029;-80
2024/03/31 03:20:59;;;;;;;16.23;7.30;;;;;;;9.89;91.18;100194.88;1733649;83;21073;-82
2024/03/31 03:23:27;;;;;;;18.65;8.08;;;;;;;9.87;91.36;100195.07;1726753;83;21104;-79
2024/03/31 03:25:58;;;;;;;11.65;6.33;;;;;;;9.87;91.49;100198.33;1733768;83;21053;-81
2024/03/31 03:28:26;;;;;;;15.83;7.90;;;;;;;9.84;91.58;100194.95;1726810;82;21441;-81
2024/03/31 03:30:55;;;;;;;16.32;7.80;;;;;;;9.82;91.72;100191.56;1733933;82;21091;-81
2024/03/31 03:33:25;;;;;;;17.40;7.95;;;;;;;9.82;91.79;100201.14;1726322;82;21049;-81
2024/03/31 03:35:55;;;;;;;15.18;8.38;;;;;;;9.80;91.85;100204.59;1733849;82;21465;-82
2024/03/31 03:38:23;;;;;;;18.20;9.05;;;;;;;9.77;91.95;100210.47;1734204;83;21033;-80
2024/03/31 03:40:53;;;;;;;20.60;9.23;;;;;;;9.71;92.06;100203.02;1734605;83;21013;-80
2024/03/31 03:43:21;;;;;;;18.55;8.60;;;;;;;9.66;92.28;100209.59;1727226;82;21028;-79
2024/03/31 03:45:52;;;;;;;19.60;8.73;;;;;;;9.65;92.56;100209.27;1733643;82;21465;-78
2024/03/31 03:48:21;;;;;;;17.62;8.43;;;;;;;9.65;92.81;100216.63;1727039;83;21073;-80
2024/03/31 03:50:49;;;;;;;18.05;8.55;;;;;;;9.63;92.87;100215.45;1742966;82;21116;-78
2024/03/31 03:53:18;;;;;;;18.87;8.80;;;;;;;9.61;92.95;100223.02;1729251;82;21029;-78
2024/03/31 03:55:46;;;;;;;17.75;8.88;;;;;;;9.59;93.07;100215.53;1733997;82;21036;-81
2024/03/31 03:58:15;;;;;;;20.55;9.33;;;;;;;9.58;93.26;100216.56;1726738;82;21088;-80
2024/03/31 04:00:43;;;;;;;15.68;8.90;;;;;;;9.59;93.44;100219.63;1716269;82;21546;-79
2024/03/31 04:03:12;;;;;;;17.55;8.88;;;;;;;9.58;93.52;100215.20;1727524;82;21542;-79
2024/03/31 04:05:41;;;;;;;19.52;8.95;;;;;;;9.59;93.66;100211.42;1718457;82;21070;-80
2024/03/31 04:08:10;;;;;;;18.20;7.87;;;;;;;9.59;93.70;100208.69;1729812;82;20994;-80
2024/03/31 04:10:39;;;;;;;15.88;8.03;;;;;;;9.61;93.72;100209.86;1749034;82;20987;-80
2024/03/31 04:13:07;;;;;;;18.20;8.33;;;;;;;9.60;93.71;100210.37;1749119;82;21451;-81
2024/03/31 04:15:36;;;;;;;17.30;8.43;;;;;;;9.60;93.74;100216.37;1748979;82;21007;-80
2024/03/31 04:18:05;;;;;;;16.87;7.45;;;;;;;9.61;93.84;100213.96;1749024;81;21078;-80
2024/03/31 04:20:35;;;;;;;17.75;7.35;;;;;;;9.60;93.93;100218.59;1749084;82;21042;-79
2024/03/31 04:23:04;;;;;;;17.40;8.35;;;;;;;9.59;94.08;100216.89;1730608;82;21435;-79
2024/03/31 04:25:32;;;;;;;25.92;8.50;;;;;;;9.61;94.29;100213.44;1748929;82;21537;-80
2024/03/31 04:28:01;;;;;;;16.20;7.30;;;;;;;9.63;94.40;100209.98;1749034;82;21423;-80
2024/03/31 04:30:29;;;;;;;15.28;6.83;;;;;;;9.65;94.54;100221.58;1749145;82;21046;-79
2024/03/31 04:32:58;;;;;;;19.37;7.28;;;;;;;9.65;94.68;100213.37;1749186;81;21237;-79
2024/03/31 04:35:27;;;;;;;18.12;7.22;;;;;;;9.67;94.87;100213.17;1749117;82;21026;-80
2024/03/31 04:37:55;;;;;;;14.63;7.03;;;;;;;9.70;95.14;100213.63;1749254;82;21130;-80
2024/03/31 04:40:24;;;;;;;14.45;6.83;;;;;;;9.75;95.47;100214.41;1749087;82;21015;-80
2024/03/31 04:42:52;;;;;;;15.03;6.45;;;;;;;9.81;95.74;100223.23;1749136;82;21018;-81
2024/03/31 04:45:23;;;;;;;16.60;7.25;;;;;;;9.87;95.87;100225.70;1749271;82;21439;-80
2024/03/31 04:47:51;;;;;;;15.68;6.65;;;;;;;9.93;96.01;100227.64;1749050;82;21512;-79
2024/03/31 04:50:20;;;;;;;16.00;7.08;;;;;;;10.00;96.17;100227.17;1749113;82;21042;-81
2024/03/31 04:52:48;;;;;;;15.88;6.78;;;;;;;10.07;96.26;100226.19;1729972;82;21462;-81
2024/03/31 04:55:16;;;;;;;14.80;7.40;;;;;;;10.14;96.20;100235.81;1749138;82;21027;-79
2024/03/31 04:57:45;;;;;;;15.20;7.62;;;;;;;10.22;96.24;100232.11;1749171;81;21078;-81
2024/03/31 05:00:14;;;;;;;14.30;5.90;;;;;;;10.29;96.20;100230.27;1749059;82;21030;-80
2024/03/31 05:02:48;;;;;;;16.40;6.20;;;;;;;10.34;96.16;100231.36;1749052;82;21038;-79
2024/03/31 05:05:16;;;;;;;15.20;6.67;;;;;;;10.44;96.18;100233.77;1755300;80;21129;-81
2024/03/31 05:07:44;;;;;;;20.05;7.20;;;;;;;10.52;96.08;100225.91;1741592;81;21031;-80
2024/03/31 05:10:12;;;;;;;17.15;7.30;;;;;;;10.59;95.92;100233.13;1740732;82;21051;-78
2024/03/31 05:12:41;;;;;;;16.62;6.15;;;;;;;10.67;95.80;100230.74;1740605;81;21027;-80
2024/03/31 05:15:09;;;;;;;18.40;6.15;;;;;;;10.76;95.66;100229.52;1740623;82;21126;-81
2024/03/31 05:17:38;;;;;;;16.67;4.95;;;;;;;10.83;95.48;100224.08;1740507;82;21019;-79
2024/03/31 05:20:08;;;;;;;12.78;4.70;;;;;;;10.93;95.43;100222.64;1719541;82;21494;-80
2024/03/31 05:22:36;;;;;;;14.75;4.95;;;;;;;11.03;95.21;100224.48;1740752;82;21062;-81
2024/03/31 05:25:04;;;;;;;18.12;5.12;;;;;;;11.15;94.96;100226.13;1740834;82;21086;-81
2024/03/31 05:27:34;;;;;;;13.30;4.80;;;;;;;11.27;94.67;100228.60;1740626;81;21039;-80
2024/03/31 05:30:03;;;;;;;13.40;5.35;;;;;;;11.38;94.23;100227.15;1740570;82;21023;-81
2024/03/31 05:32:32;;;;;;;17.25;5.67;;;;;;;11.48;93.55;100230.34;1744123;82;21062;-81
2024/03/31 05:35:02;;;;;;;13.58;4.80;;;;;;;11.58;93.09;100224.45;1740040;82;21015;-83
2024/03/31 05:37:31;;;;;;;14.45;4.97;;;;;;;11.65;92.55;100224.77;1719792;82;21023;-79
2024/03/31 05:40:01;;;;;;;17.45;6.17;;;;;;;11.74;91.98;100229.04;1740558;82;20998;-81
2024/03/31 05:42:30;;;;;;;13.83;5.15;;;;;;;11.82;91.43;100220.31;1740624;82;21400;-81
2024/03/31 05:44:59;;;;;;;23.22;7.33;;;;;;;11.89;90.89;100221.16;1740613;82;21003;-80
2024/03/31 05:47:27;;;;;;;20.30;5.65;;;;;;;11.97;90.47;100216.83;1740780;82;21043;-80
2024/03/31 05:49:55;;;;;;;17.25;5.30;;;;;;;12.06;90.07;100219.69;1740546;82;21147;-82
2024/03/31 05:52:24;;;;;;;13.98;5.47;;;;;;;12.14;89.50;100227.70;1740617;82;21162;-80
2024/03/31 05:54:52;;;;;;;15.13;5.62;;;;;;;12.21;89.07;100221.68;1740804;82;21023;-80
2024/03/31 05:57:21;;;;;;;17.00;5.58;;;;;;;12.28;88.68;100216.17;1744088;81;21588;-80
2024/03/31 05:59:49;;;;;;;13.43;5.55;;;;;;;12.36;88.08;100228.34;1740586;81;21090;-80
2024/03/31 06:02:17;;;;;;;13.62;5.55;;;;;;;12.43;87.76;100236.58;1740624;82;21027;-81
2024/03/31 06:04:46;;;;;;;15.05;5.55;;;;;;;12.48;87.26;100236.78;1719916;82;21051;-83
2024/03/31 06:07:14;;;;;;;16.80;5.75;;;;;;;12.54;86.90;100249.14;1738914;81;21085;-80
2024/03/31 06:09:45;;;;;;;16.60;5.33;;;;;;;12.59;86.53;100239.72;1736143;81;21051;-80
2024/03/31 06:12:13;;;;;;;16.97;5.22;;;;;;;12.66;86.17;100232.30;1744440;81;21063;-81
2024/03/31 06:14:42;;;;;;;15.58;5.20;;;;;;;12.75;85.67;100235.66;1739530;83;20983;-81
2024/03/31 06:17:11;;;;;;;15.10;5.22;;;;;;;12.82;85.30;100237.02;1736763;83;21062;-81
2024/03/31 06:19:39;;;;;;;13.48;5.65;;;;;;;12.89;84.84;100229.05;1736729;83;21024;-81
2024/03/31 06:22:07;;;;;;;17.85;4.85;;;;;;;12.95;84.26;100232.31;1737447;83;21035;-80
2024/03/31 06:24:36;;;;;;;14.83;5.20;;;;;;;13.04;83.94;100232.10;1737109;81;21063;-80
2024/03/31 06:27:04;;;;;;;16.75;6.17;;;;;;;13.11;83.62;100232.38;1736338;83;21042;-82
2024/03/31 06:29:33;;;;;;;12.23;4.58;;;;;;;13.19;83.33;100229.95;1736387;83;21059;-82
2024/03/31 06:32:01;;;;;;;20.20;5.85;;;;;;;13.26;83.00;100221.13;1736140;83;21039;-80
2024/03/31 06:34:30;;;;;;;12.58;5.03;;;;;;;13.37;82.70;100216.30;1736210;83;20985;-81
2024/03/31 06:36:58;;;;;;;17.23;5.72;;;;;;;13.46;82.22;100216.35;1736056;83;21050;-79
2024/03/31 06:39:27;;;;;;;12.10;4.67;;;;;;;13.56;81.81;100218.09;1736450;83;21078;-81
2024/03/31 06:41:56;;;;;;;18.20;5.40;;;;;;;13.66;81.45;100224.52;1736316;83;21035;-80
2024/03/31 06:44:25;;;;;;;16.23;4.83;;;;;;;13.75;81.21;100223.18;1736344;83;21075;-80
2024/03/31 06:46:53;;;;;;;18.07;5.53;;;;;;;13.85;80.76;100229.56;1736195;83;21094;-81
2024/03/31 06:49:22;;;;;;;14.20;5.53;;;;;;;13.93;80.56;100230.14;1736160;81;21017;-80
2024/03/31 06:51:50;;;;;;;14.85;4.65;;;;;;;14.03;80.21;100233.77;1736236;83;20992;-80
2024/03/31 06:54:18;;;;;;;16.60;5.10;;;;;;;14.10;80.01;100226.29;1736087;83;21011;-80
2024/03/31 06:56:47;;;;;;;18.60;5.22;;;;;;;14.20;79.39;100228.00;1736337;83;21063;-80
2024/03/31 06:59:18;;;;;;;13.22;5.17;;;;;;;14.29;78.93;100230.78;1735859;82;21059;-79
2024/03/31 07:01:47;;;;;;;17.62;4.72;;;;;;;14.39;78.54;100232.20;1736773;83;21455;-83
2024/03/31 07:04:15;;;;;;;12.55;4.22;;;;;;;14.47;78.47;100219.55;1736336;83;21043;-81
2024/03/31 07:06:45;;;;;;;16.67;5.17;;;;;;;14.57;77.71;100225.38;1735989;82;21034;-77
2024/03/31 07:09:14;;;;;;;13.75;4.78;;;;;;;14.68;77.69;100221.86;1733711;82;21449;-80
2024/03/31 07:11:43;;;;;;;22.25;4.75;;;;;;;14.79;77.28;100221.63;1726499;83;21496;-82
2024/03/31 07:14:11;;;;;;;16.62;4.80;;;;;;;14.90;77.30;100224.47;1733681;83;21041;-82
2024/03/31 07:16:41;;;;;;;19.45;4.47;;;;;;;15.01;76.88;100224.80;1726444;82;21069;-81
2024/03/31 07:19:09;;;;;;;17.02;4.65;;;;;;;15.10;76.20;100222.03;1715014;83;21092;-80
2024/03/31 07:21:38;;;;;;;18.98;5.12;;;;;;;15.21;75.69;100219.87;1726536;82;21049;-80
2024/03/31 07:24:06;;;;;;;16.90;4.37;;;;;;;15.30;75.31;100222.61;1733765;83;21073;-80
2024/03/31 07:26:35;;;;;;;16.77;5.12;;;;;;;15.40;74.66;100221.52;1726410;83;21508;-82
2024/03/31 07:29:03;;;;;;;18.00;4.85;;;;;;;15.49;74.11;100222.03;1733840;83;21053;-80
2024/03/31 07:31:33;;;;;;;13.58;4.95;;;;;;;15.58;73.98;100228.94;1733641;82;21014;-80
2024/03/31 07:34:04;;;;;;;20.75;5.47;;;;;;;15.68;73.88;100231.16;1715320;83;21021;-80
2024/03/31 07:36:32;;;;;;;17.02;5.10;;;;;;;15.77;73.97;100229.75;1733863;83;21057;-81
2024/03/31 07:39:00;;;;;;;19.80;4.50;;;;;;;15.88;73.63;100228.94;1726684;82;21025;-79
2024/03/31 07:41:29;;;;;;;13.70;4.58;;;;;;;16.00;72.88;100226.20;1715182;83;21558;-81
2024/03/31 07:43:57;;;;;;;13.13;5.10;;;;;;;16.12;72.38;100225.68;1726606;83;20986;-81
2024/03/31 07:46:25;;;;;;;14.45;4.62;;;;;;;16.23;71.97;100228.16;1715102;83;21510;-82
2024/03/31 07:48:55;;;;;;;17.70;5.35;;;;;;;16.36;71.33;100233.48;1733901;83;21036;-81
2024/03/31 07:51:23;;;;;;;22.20;5.03;;;;;;;16.46;70.98;100232.34;1733820;83;21037;-81
2024/03/31 07:53:52;;;;;;;15.23;4.78;;;;;;;16.58;70.58;100233.19;1727062;83;21049;-81
2024/03/31 07:56:20;;;;;;;17.67;5.30;;;;;;;16.68;69.87;100228.45;1734111;82;21061;-80
2024/03/31 07:58:49;;;;;;;22.15;5.28;;;;;;;16.84;69.34;100226.87;1726588;83;21041;-80
2024/03/31 08:01:17;;;;;;;16.85;5.12;;;;;;;17.13;68.86;100228.64;1733818;83;21025;-81
2024/03/31 08:03:45;;;;;;;16.40;4.78;;;;;;;17.46;68.10;100222.94;1726546;83;21567;-81
2024/03/31 08:06:14;;;;;;;14.55;4.55;;;;;;;17.82;67.49;100221.19;1733939;83;21001;-80
2024/03/31 08:08:42;;;;;;;23.62;5.47;;;;;;;18.22;66.00;100217.46;1726428;82;21172;-80
2024/03/31 08:11:11;;;;;;;17.25;5.03;;;;;;;18.62;64.49;100220.90;1733973;83;21546;-79
2024/03/31 08:13:41;;;;;;;25.75;6.35;;;;;;;18.98;63.62;100213.09;1726550;82;21033;-79
2024/03/31 08:16:10;;;;;;;15.08;4.67;;;;;;;19.37;62.78;100211.62;1734043;82;21041;-81
2024/03/31 08:18:42;;;;;;;20.00;5.25;;;;;;;19.71;60.87;100205.39;1726717;82;21057;-81
2024/03/31 08:21:10;;;;;;;23.07;5.87;;;;;;;20.04;59.62;100212.66;1733718;83;21579;-81
2024/03/31 08:23:39;;;;;;;12.68;4.55;;;;;;;20.37;58.50;100205.44;1715605;83;21037;-80
2024/03/31 08:26:07;;;;;;;21.65;5.30;;;;;;;20.66;57.13;100197.59;1706422;83;21069;-80
2024/03/31 08:28:36;;;;;;;17.60;4.92;;;;;;;20.99;56.05;100203.93;1715910;83;21073;-72
2024/03/31 08:31:05;;;;;;;19.65;4.72;;;;;;;21.24;54.51;100201.84;1734142;83;21077;-73
2024/03/31 08:33:34;;;;;;;19.62;4.70;;;;;;;21.45;53.59;100199.40;1726679;82;21060;-72
2024/03/31 08:36:03;;;;;;;19.07;4.78;;;;;;;21.66;53.09;100198.92;1734062;83;21009;-73
2024/03/31 08:38:32;;;;;;;17.23;4.83;;;;;;;21.88;52.38;100193.09;1733469;82;21041;-73
2024/03/31 08:41:06;;;;;;;12.95;4.62;;;;;;;22.10;51.56;100186.16;1725409;82;21074;-72
2024/03/31 08:43:39;;;;;;;15.70;5.00;;;;;;;22.30;51.10;100188.14;1717180;83;21070;-73
2024/03/31 08:46:08;;;;;;;17.07;4.85;;;;;;;22.44;50.32;100186.45;1762096;80;21066;-74
2024/03/31 08:48:37;;;;;;;21.23;4.97;;;;;;;22.58;50.13;100188.66;1761895;81;21468;-71
2024/03/31 08:51:06;;;;;;;17.15;4.85;;;;;;;22.70;49.27;100181.64;1761927;81;21096;-79
2024/03/31 08:53:34;;;;;;;17.07;5.00;;;;;;;22.80;48.80;100180.84;1762231;81;21133;-82
2024/03/31 08:56:03;;;;;;;20.45;5.35;;;;;;;22.80;47.88;100175.25;1762349;80;21563;-81
2024/03/31 08:58:35;;;;;;;18.23;5.03;;;;;;;22.76;48.30;100176.91;1762134;81;21034;-81
2024/03/31 09:01:03;;;;;;;20.52;6.03;;;;;;;22.72;48.13;100179.41;1762113;81;21089;-82
2024/03/31 09:03:31;;;;;;;17.67;4.40;;;;;;;22.65;48.33;100179.42;1762365;80;21057;-81
2024/03/31 09:05:59;;;;;;;21.57;4.83;;;;;;;22.59;48.35;100180.55;1762874;81;21064;-81
2024/03/31 09:08:28;;;;;;;17.07;3.92;;;;;;;22.53;48.60;100177.49;1729787;80;21071;-80
2024/03/31 09:10:58;;;;;;;26.07;5.40;;;;;;;22.50;48.31;100174.70;1731443;81;21059;-82
2024/03/31 09:13:26;;;;;;;28.17;5.72;;;;;;;22.45;48.55;100168.58;1728813;81;21051;-81
2024/03/31 09:15:55;;;;;;;22.60;4.85;;;;;;;22.42;48.54;100171.09;1684662;83;21078;-82
2024/03/31 09:18:24;;;;;;;18.67;4.75;;;;;;;22.41;49.01;100170.25;1727906;83;21074;-81
2024/03/31 09:20:52;;;;;;;15.50;4.53;;;;;;;22.34;48.05;100164.69;1727578;83;21434;-81
2024/03/31 09:23:21;;;;;;;14.23;4.47;;;;;;;22.16;48.04;100166.66;1728260;83;21042;-82
2024/03/31 09:25:49;;;;;;;23.98;5.10;;;;;;;22.00;48.83;100171.34;1728508;81;21093;-83
2024/03/31 09:28:18;;;;;;;14.50;4.85;;;;;;;21.92;49.24;100176.08;1729166;82;21047;-82
2024/03/31 09:30:51;;;;;;;21.97;5.08;;;;;;;21.83;49.55;100179.42;1709432;83;21066;-79
2024/03/31 09:33:19;;;;;;;17.48;4.83;;;;;;;21.70;49.66;100177.17;1730584;81;21042;-82
2024/03/31 09:35:48;;;;;;;14.95;4.75;;;;;;;21.58;49.91;100182.17;1731147;83;21498;-82
2024/03/31 09:38:16;;;;;;;20.95;4.97;;;;;;;21.52;50.04;100172.13;1730555;82;21077;-82
2024/03/31 09:40:45;;;;;;;26.15;5.62;;;;;;;21.41;50.11;100182.38;1730520;83;21063;-80
2024/03/31 09:43:13;;;;;;;21.68;4.55;;;;;;;21.30;50.45;100175.66;1729490;83;21074;-79
2024/03/31 09:45:42;;;;;;;27.85;5.10;;;;;;;21.21;51.07;100177.55;1728268;83;21078;-80
2024/03/31 09:48:10;;;;;;;27.62;5.45;;;;;;;21.19;51.27;100172.81;1726988;83;21058;-79
2024/03/31 09:50:43;;;;;;;18.75;4.40;;;;;;;21.19;51.39;100179.78;1726775;83;21098;-79
2024/03/31 09:53:16;;;;;;;64.12;7.08;;;;;;;21.18;50.95;100171.13;1727514;83;21063;-80
2024/03/31 09:55:44;;;;;;;15.43;4.33;;;;;;;21.18;51.05;100173.08;1727210;83;21058;-79
2024/03/31 09:58:13;;;;;;;24.72;4.78;;;;;;;21.11;51.03;100167.77;1727034;83;21058;-80
2024/03/31 10:00:43;;;;;;;17.25;4.40;;;;;;;21.07;51.39;100169.42;1727469;83;21035;-73
2024/03/31 10:03:31;;;;;;;19.85;4.70;;;;;;;21.05;51.58;100163.84;1727470;83;21536;-78
2024/03/31 10:06:00;;;;;;;15.75;4.78;;;;;;;21.01;51.94;100163.55;1727377;83;21490;-81
2024/03/31 10:08:29;;;;;;;16.07;4.42;;;;;;;21.00;52.19;100159.09;1728098;83;21042;-81
2024/03/31 10:10:58;;;;;;;19.92;4.87;;;;;;;21.05;51.93;100150.75;1730367;83;21050;-77
2024/03/31 10:13:27;;;;;;;20.43;4.30;;;;;;;21.07;51.91;100152.70;1761404;81;21470;-77
2024/03/31 10:15:57;;;;;;;16.87;4.03;;;;;;;21.09;51.86;100149.64;1774696;80;21445;-81
2024/03/31 10:18:25;;;;;;;18.60;4.22;;;;;;;21.14;51.10;100150.50;1698865;84;21541;-81
2024/03/31 10:20:54;;;;;;;14.15;4.22;;;;;;;21.17;50.73;100137.41;1669865;84;21497;-82
2024/03/31 10:23:22;;;;;;;18.30;4.70;;;;;;;21.20;50.85;100142.44;1699315;84;21037;-81
2024/03/31 10:25:52;;;;;;;21.17;4.75;;;;;;;21.24;50.87;100143.31;1668896;84;21033;-81
2024/03/31 10:28:21;;;;;;;16.77;4.22;;;;;;;21.26;50.80;100133.56;1700087;83;21045;-83
2024/03/31 10:30:49;;;;;;;16.30;4.05;;;;;;;21.32;50.65;100135.25;1700123;84;21069;-82
2024/03/31 10:33:18;;;;;;;20.27;4.30;;;;;;;21.33;50.18;100134.70;1699524;84;21333;-83
2024/03/31 10:35:48;;;;;;;15.75;4.45;;;;;;;21.33;50.05;100127.17;1696402;84;21128;-83
2024/03/31 10:38:18;;;;;;;45.38;5.28;;;;;;;21.35;50.64;100125.50;1699565;83;21497;-81
2024/03/31 10:40:46;;;;;;;19.30;4.55;;;;;;;21.36;50.17;100128.02;1699309;84;21045;-80
2024/03/31 10:43:15;;;;;;;16.60;4.12;;;;;;;21.38;50.23;100127.19;1700815;83;21069;-82
2024/03/31 10:45:44;;;;;;;15.88;4.25;;;;;;;21.41;50.38;100123.01;1700691;84;21485;-80
2024/03/31 10:48:15;;;;;;;13.38;3.98;;;;;;;21.43;50.27;100121.62;1668851;84;21541;-82
2024/03/31 10:50:43;;;;;;;17.07;4.62;;;;;;;21.44;50.34;100117.72;1700057;84;21080;-81
2024/03/31 10:53:12;;;;;;;16.67;4.05;;;;;;;21.46;50.64;100109.95;1699608;83;21349;-80
2024/03/31 10:55:45;;;;;;;14.25;4.03;;;;;;;21.50;50.89;100107.45;1699397;84;21108;-82
2024/03/31 10:58:14;;;;;;;15.78;4.47;;;;;;;21.54;50.62;100112.75;1692299;84;21081;-82
2024/03/31 11:00:43;;;;;;;16.27;4.20;;;;;;;21.56;50.41;100096.58;1698687;84;21133;-73
2024/03/31 11:03:13;;;;;;;16.42;4.03;;;;;;;21.58;50.55;100092.95;1698567;84;21749;-74
2024/03/31 11:05:41;;;;;;;12.73;3.47;;;;;;;21.60;49.58;100098.25;1698369;83;21529;-72
2024/03/31 11:08:11;;;;;;;15.00;3.65;;;;;;;21.63;48.51;100092.12;1698400;84;21005;-68
2024/03/31 11:10:39;;;;;;;16.10;3.40;;;;;;;21.65;48.40;100080.97;1691264;85;21496;-74
2024/03/31 11:13:08;;;;;;;14.65;3.80;;;;;;;21.69;48.40;100078.45;1691422;83;21445;-75
2024/03/31 11:15:37;;;;;;;16.42;4.15;;;;;;;21.71;48.44;100068.69;1672052;85;21089;-74
2024/03/31 11:18:05;;;;;;;15.60;4.12;;;;;;;21.72;48.31;100064.78;1720354;83;21149;-74
2024/03/31 11:20:42;;;;;;;12.05;3.60;;;;;;;21.73;48.54;100062.84;1724571;83;21356;-72
2024/03/31 11:23:15;;;;;;;;;;;;;;;21.77;48.91;100066.73;1727269;83;21038;-74
2024/03/31 11:25:41;;;;;;;19.15;4.15;;;;;;;21.76;48.51;100060.33;1724716;83;20187;-76